createdAt,value
2019-05-23T00:00:50.584Z,99.90
2019-05-23T00:03:49.218Z,99.90
2019-05-23T00:06:39.450Z,99.90
2019-05-23T00:09:27.627Z,99.90
2019-05-23T00:12:04.387Z,99.90
2019-05-23T00:14:40.056Z,99.90
2019-05-23T00:17:12.646Z,99.90
2019-05-23T00:19:43.152Z,99.90
2019-05-23T00:22:13.601Z,99.90
2019-05-23T00:24:43.523Z,99.90
2019-05-23T00:27:14.478Z,99.90
2019-05-23T00:29:44.648Z,99.90
2019-05-23T00:32:19.301Z,99.90
2019-05-23T00:34:51.345Z,99.90
2019-05-23T00:37:23.865Z,99.90
2019-05-23T00:39:54.134Z,99.90
2019-05-23T00:42:23.504Z,99.90
2019-05-23T00:44:53.869Z,99.90
2019-05-23T00:47:23.660Z,99.90
2019-05-23T00:49:53.301Z,99.90
2019-05-23T00:52:23.044Z,99.90
2019-05-23T00:54:52.690Z,99.90
2019-05-23T00:57:22.268Z,99.90
2019-05-23T00:59:52.782Z,99.90
2019-05-23T01:02:23.169Z,99.90
2019-05-23T01:04:52.469Z,99.90
2019-05-23T01:07:23.616Z,99.90
2019-05-23T01:09:54.365Z,99.90
2019-05-23T01:12:23.722Z,99.90
2019-05-23T01:14:54.019Z,99.90
2019-05-23T01:17:25.880Z,99.90
2019-05-23T01:19:56.918Z,99.90
2019-05-23T01:22:26.300Z,99.90
2019-05-23T01:24:56.143Z,99.90
2019-05-23T01:27:25.714Z,99.90
2019-05-23T01:29:56.073Z,99.90
2019-05-23T01:32:27.185Z,99.90
2019-05-23T01:34:56.789Z,99.90
2019-05-23T01:37:26.696Z,99.90
2019-05-23T01:39:56.085Z,99.90
2019-05-23T01:42:26.724Z,99.90
2019-05-23T01:44:58.482Z,99.90
2019-05-23T01:47:28.263Z,99.90
2019-05-23T01:49:58.198Z,99.90
2019-05-23T01:52:27.526Z,99.90
2019-05-23T01:54:56.997Z,99.90
2019-05-23T01:57:27.674Z,99.90
2019-05-23T02:00:08.783Z,99.90
2019-05-23T02:02:29.276Z,99.90
2019-05-23T02:04:59.217Z,99.90
2019-05-23T02:07:30.536Z,99.90
2019-05-23T02:10:00.167Z,99.90
2019-05-23T02:12:29.490Z,99.90
2019-05-23T02:14:59.567Z,99.90
2019-05-23T02:17:30.342Z,99.90
2019-05-23T02:19:59.653Z,99.90
2019-05-23T02:22:29.220Z,99.90
2019-05-23T02:24:59.590Z,99.90
2019-05-23T02:27:29.592Z,99.90
2019-05-23T02:30:00.421Z,99.90
2019-05-23T02:32:31.109Z,99.90
2019-05-23T02:35:00.562Z,99.90
2019-05-23T02:37:32.722Z,99.90
2019-05-23T02:40:10.319Z,99.90
2019-05-23T02:42:58.491Z,99.90
2019-05-23T02:45:31.460Z,99.90
2019-05-23T02:48:01.257Z,99.90
2019-05-23T02:50:50.361Z,99.90
2019-05-23T02:53:23.632Z,99.90
2019-05-23T02:55:56.259Z,99.90
2019-05-23T02:58:31.462Z,99.90
2019-05-23T03:01:10.359Z,99.90
2019-05-23T03:03:42.454Z,99.90
2019-05-23T03:06:14.062Z,99.90
2019-05-23T03:08:46.226Z,99.90
2019-05-23T03:11:28.797Z,99.90
2019-05-23T03:13:59.534Z,99.90
2019-05-23T03:16:34.009Z,99.90
2019-05-23T03:19:21.342Z,99.90
2019-05-23T03:21:53.391Z,99.90
2019-05-23T03:24:24.940Z,99.90
2019-05-23T03:27:03.642Z,99.90
2019-05-23T03:29:34.431Z,99.90
2019-05-23T03:32:06.990Z,99.90
2019-05-23T03:34:38.015Z,99.90
2019-05-23T03:37:07.955Z,99.90
2019-05-23T03:39:37.542Z,99.90
2019-05-23T03:42:08.401Z,99.90
2019-05-23T03:44:38.953Z,99.90
2019-05-23T03:47:09.927Z,99.90
2019-05-23T03:49:39.878Z,99.90
2019-05-23T03:52:11.198Z,99.90
2019-05-23T03:54:42.935Z,99.90
2019-05-23T03:57:13.102Z,99.90
2019-05-23T03:59:42.424Z,99.90
2019-05-23T04:02:13.410Z,99.90
2019-05-23T04:04:44.182Z,99.90
2019-05-23T04:07:15.135Z,99.90
2019-05-23T04:09:45.043Z,99.90
2019-05-23T04:12:14.727Z,99.90
2019-05-23T04:14:45.747Z,99.90
2019-05-23T04:17:15.066Z,99.90
2019-05-23T04:19:44.450Z,99.90
2019-05-23T04:22:13.903Z,99.90
2019-05-23T04:24:43.572Z,99.90
2019-05-23T04:27:14.931Z,99.90
2019-05-23T04:29:44.472Z,99.90
2019-05-23T04:32:13.774Z,99.90
2019-05-23T04:34:43.249Z,99.90
2019-05-23T04:37:12.553Z,99.90
2019-05-23T04:39:41.858Z,99.90
2019-05-23T04:42:11.440Z,99.90
2019-05-23T04:44:44.400Z,99.90
2019-05-23T04:47:12.606Z,99.90
2019-05-23T04:49:41.914Z,99.90
2019-05-23T04:52:11.353Z,99.90
2019-05-23T04:54:41.525Z,99.90
2019-05-23T04:57:12.476Z,99.90
2019-05-23T04:59:42.386Z,99.90
2019-05-23T05:02:25.512Z,99.90
2019-05-23T05:04:44.762Z,99.90
2019-05-23T05:07:14.635Z,99.90
2019-05-23T05:09:44.077Z,99.90
2019-05-23T05:12:14.625Z,99.90
2019-05-23T05:14:44.000Z,99.90
2019-05-23T05:17:14.309Z,99.90
2019-05-23T05:19:43.610Z,99.90
2019-05-23T05:22:13.384Z,99.90
2019-05-23T05:24:42.764Z,99.90
2019-05-23T05:27:12.062Z,99.90
2019-05-23T05:29:41.373Z,99.90
2019-05-23T05:32:11.127Z,99.90
2019-05-23T05:34:40.429Z,99.90
2019-05-23T05:37:09.737Z,99.90
2019-05-23T05:39:39.423Z,99.90
2019-05-23T05:42:09.304Z,99.90
2019-05-23T05:44:39.862Z,99.90
2019-05-23T05:47:10.234Z,99.90
2019-05-23T05:49:42.197Z,99.90
2019-05-23T05:52:11.882Z,99.90
2019-05-23T05:54:41.263Z,99.90
2019-05-23T05:57:11.604Z,99.90
2019-05-23T05:59:42.290Z,99.90
2019-05-23T06:02:13.225Z,99.90
2019-05-23T06:04:43.095Z,99.90
2019-05-23T06:07:32.744Z,99.90
2019-05-23T06:10:03.988Z,99.90
2019-05-23T06:12:35.421Z,99.90
2019-05-23T06:15:09.335Z,99.90
2019-05-23T06:17:38.648Z,99.90
2019-05-23T06:20:08.836Z,99.90
2019-05-23T06:22:38.405Z,99.90
2019-05-23T06:25:08.825Z,99.90
2019-05-23T06:27:40.344Z,99.90
2019-05-23T06:30:13.457Z,99.90
2019-05-23T06:32:42.795Z,99.90
2019-05-23T06:35:14.412Z,99.90
2019-05-23T06:37:43.779Z,99.90
2019-05-23T06:40:13.869Z,99.90
2019-05-23T06:42:43.276Z,99.90
2019-05-23T06:45:12.825Z,99.90
2019-05-23T06:47:42.131Z,99.90
2019-05-23T06:50:16.084Z,99.90
2019-05-23T06:52:45.517Z,99.90
2019-05-23T06:55:14.897Z,99.90
2019-05-23T06:57:44.268Z,99.90
2019-05-23T07:00:17.212Z,99.90
2019-05-23T07:02:48.333Z,99.90
2019-05-23T07:05:21.639Z,99.90
2019-05-23T07:07:50.951Z,99.90
2019-05-23T07:10:20.257Z,99.90
2019-05-23T07:12:51.124Z,99.90
2019-05-23T07:15:20.500Z,99.90
2019-05-23T07:17:50.360Z,99.90
2019-05-23T07:20:19.730Z,99.90
2019-05-23T07:22:49.310Z,99.90
2019-05-23T07:25:18.680Z,99.90
2019-05-23T07:27:48.229Z,99.90
2019-05-23T07:30:23.261Z,99.90
2019-05-23T07:32:53.643Z,99.90
2019-05-23T07:35:23.794Z,99.90
2019-05-23T07:37:53.233Z,99.90
2019-05-23T07:40:23.911Z,99.90
2019-05-23T07:42:53.756Z,99.90
2019-05-23T07:45:30.425Z,99.90
2019-05-23T07:48:01.960Z,99.90
2019-05-23T07:50:32.119Z,99.50
2019-05-23T07:53:01.660Z,98.50
2019-05-23T07:55:38.541Z,98.00
2019-05-23T07:58:12.743Z,98.70
2019-05-23T08:00:44.885Z,99.70
2019-05-23T08:03:16.339Z,98.90
2019-05-23T08:05:46.427Z,97.20
2019-05-23T08:08:16.198Z,96.00
2019-05-23T08:10:46.411Z,97.10
2019-05-23T08:13:17.449Z,95.70
2019-05-23T08:15:47.901Z,96.90
2019-05-23T08:18:17.294Z,97.10
2019-05-23T08:20:46.686Z,96.60
2019-05-23T08:23:17.041Z,96.30
2019-05-23T08:25:47.641Z,95.50
2019-05-23T08:28:17.011Z,94.70
2019-05-23T08:30:46.495Z,94.30
2019-05-23T08:33:16.180Z,92.90
2019-05-23T08:35:46.355Z,92.60
2019-05-23T08:38:15.657Z,90.40
2019-05-23T08:40:44.976Z,90.80
2019-05-23T08:43:14.566Z,82.00
2019-05-23T08:45:44.526Z,83.80
2019-05-23T08:48:14.077Z,86.20
2019-05-23T08:50:43.450Z,88.70
2019-05-23T08:53:13.002Z,83.20
2019-05-23T08:55:43.639Z,87.00
2019-05-23T08:58:13.571Z,88.90
2019-05-23T09:00:44.502Z,91.60
2019-05-23T09:03:13.796Z,90.50
2019-05-23T09:05:44.658Z,89.40
2019-05-23T09:08:16.895Z,88.80
2019-05-23T09:10:46.055Z,89.20
2019-05-23T09:13:17.069Z,90.00
2019-05-23T09:15:46.375Z,85.70
2019-05-23T09:18:16.428Z,85.80
2019-05-23T09:20:46.172Z,84.20
2019-05-23T09:23:15.480Z,87.20
2019-05-23T09:25:44.820Z,89.00
2019-05-23T09:28:15.153Z,88.80
2019-05-23T09:30:45.488Z,86.40
2019-05-23T09:33:14.864Z,84.80
2019-05-23T09:35:44.513Z,78.40
2019-05-23T09:38:13.894Z,86.60
2019-05-23T09:40:43.269Z,78.90
2019-05-23T09:43:13.283Z,82.50
2019-05-23T09:45:42.642Z,81.80
2019-05-23T09:48:11.944Z,81.70
2019-05-23T09:50:41.260Z,80.90
2019-05-23T09:53:10.565Z,78.00
2019-05-23T09:55:39.891Z,79.80
2019-05-23T09:58:09.198Z,79.60
2019-05-23T10:00:40.220Z,76.90
2019-05-23T10:03:09.520Z,74.80
2019-05-23T10:05:43.491Z,65.80
2019-05-23T10:08:11.682Z,59.00
2019-05-23T10:10:41.329Z,62.10
2019-05-23T10:13:10.713Z,67.40
2019-05-23T10:15:45.902Z,73.50
2019-05-23T10:18:19.722Z,79.00
2019-05-23T10:20:49.021Z,78.80
2019-05-23T10:23:18.373Z,82.30
2019-05-23T10:25:47.733Z,84.60
2019-05-23T10:28:17.121Z,80.40
2019-05-23T10:30:46.510Z,80.60
2019-05-23T10:33:15.902Z,78.70
2019-05-23T10:35:59.641Z,73.20
2019-05-23T10:38:17.418Z,76.80
2019-05-23T10:40:48.708Z,80.60
2019-05-23T10:43:18.021Z,85.40
2019-05-23T10:45:48.001Z,85.20
2019-05-23T10:48:18.931Z,85.80
2019-05-23T10:50:48.252Z,89.00
2019-05-23T10:53:18.135Z,90.00
2019-05-23T10:55:47.730Z,87.20
2019-05-23T10:58:17.884Z,90.00
2019-05-23T11:00:47.288Z,72.30
2019-05-23T11:03:17.233Z,65.90
2019-05-23T11:05:46.881Z,60.50
2019-05-23T11:08:16.685Z,59.90
2019-05-23T11:10:46.721Z,66.20
2019-05-23T11:13:16.155Z,63.10
2019-05-23T11:15:45.505Z,63.60
2019-05-23T11:18:15.274Z,55.80
2019-05-23T11:20:44.654Z,60.00
2019-05-23T11:23:15.605Z,57.90
2019-05-23T11:25:45.014Z,59.00
2019-05-23T11:28:14.326Z,56.00
2019-05-23T11:30:50.034Z,59.60
2019-05-23T11:33:20.454Z,65.60
2019-05-23T11:35:50.600Z,71.40
2019-05-23T11:38:20.385Z,69.70
2019-05-23T11:40:50.231Z,56.00
2019-05-23T11:43:20.521Z,58.10
2019-05-23T11:45:51.538Z,54.20
2019-05-23T11:48:21.508Z,55.90
2019-05-23T11:50:50.880Z,54.20
2019-05-23T11:53:20.201Z,53.10
2019-05-23T11:55:53.981Z,50.50
2019-05-23T11:58:20.571Z,56.40
2019-05-23T12:00:54.896Z,60.10
2019-05-23T12:03:24.553Z,58.30
2019-05-23T12:05:53.913Z,59.80
2019-05-23T12:08:23.334Z,66.40
2019-05-23T12:10:52.704Z,56.60
2019-05-23T12:13:22.006Z,55.60
2019-05-23T12:15:52.385Z,59.70
2019-05-23T12:18:22.051Z,60.50
2019-05-23T12:20:51.429Z,59.40
2019-05-23T12:23:20.742Z,52.00
2019-05-23T12:25:50.121Z,53.40
2019-05-23T12:28:20.190Z,53.60
2019-05-23T12:30:49.518Z,55.90
2019-05-23T12:33:18.821Z,57.60
2019-05-23T12:35:48.128Z,63.00
2019-05-23T12:38:17.442Z,67.50
2019-05-23T12:40:46.813Z,60.60
2019-05-23T12:43:16.212Z,52.80
2019-05-23T12:45:45.517Z,53.00
2019-05-23T12:48:19.147Z,60.90
2019-05-23T12:50:53.800Z,58.50
2019-05-23T12:53:21.572Z,56.10
2019-05-23T12:55:50.927Z,53.60
2019-05-23T12:58:21.577Z,53.00
2019-05-23T13:00:53.924Z,50.70
2019-05-23T13:03:24.996Z,49.60
2019-05-23T13:05:54.368Z,51.40
2019-05-23T13:08:23.945Z,50.10
2019-05-23T13:10:53.276Z,52.40
2019-05-23T13:13:22.736Z,54.10
2019-05-23T13:15:52.041Z,53.40
2019-05-23T13:18:21.530Z,52.00
2019-05-23T13:20:51.113Z,50.50
2019-05-23T13:23:21.499Z,49.70
2019-05-23T13:25:51.268Z,51.00
2019-05-23T13:28:20.673Z,48.80
2019-05-23T13:30:50.055Z,49.90
2019-05-23T13:33:19.740Z,47.50
2019-05-23T13:35:49.178Z,45.90
2019-05-23T13:38:18.511Z,44.10
2019-05-23T13:40:47.806Z,41.80
2019-05-23T13:43:17.116Z,44.20
2019-05-23T13:45:47.384Z,48.00
2019-05-23T13:48:16.690Z,46.50
2019-05-23T13:50:45.998Z,48.00
2019-05-23T13:53:16.372Z,47.40
2019-05-23T13:55:46.117Z,47.50
2019-05-23T13:58:15.814Z,47.60
2019-05-23T14:00:45.141Z,46.30
2019-05-23T14:03:14.665Z,45.00
2019-05-23T14:05:43.973Z,48.70
2019-05-23T14:08:13.605Z,48.10
2019-05-23T14:10:43.079Z,46.30
2019-05-23T14:13:12.456Z,46.80
2019-05-23T14:15:43.893Z,46.20
2019-05-23T14:18:15.810Z,44.70
2019-05-23T14:20:45.313Z,45.00
2019-05-23T14:23:20.370Z,45.80
2019-05-23T14:25:50.529Z,44.10
2019-05-23T14:28:20.073Z,44.00
2019-05-23T14:30:51.314Z,42.50
2019-05-23T14:33:34.614Z,43.10
2019-05-23T14:36:08.466Z,44.70
2019-05-23T14:38:38.796Z,47.10
2019-05-23T14:41:08.344Z,49.10
2019-05-23T14:43:38.138Z,49.80
2019-05-23T14:46:17.936Z,51.80
2019-05-23T14:48:48.953Z,49.80
2019-05-23T14:51:19.945Z,48.20
2019-05-23T14:54:07.212Z,50.50
2019-05-23T14:56:38.350Z,48.40
2019-05-23T14:59:08.904Z,49.60
2019-05-23T15:01:38.869Z,45.50
2019-05-23T15:04:08.241Z,46.10
2019-05-23T15:06:37.814Z,48.10
2019-05-23T15:09:08.853Z,49.70
2019-05-23T15:11:38.705Z,49.60
2019-05-23T15:14:08.150Z,49.80
2019-05-23T15:16:37.458Z,50.00
2019-05-23T15:19:09.711Z,52.80
2019-05-23T15:21:40.069Z,51.70
2019-05-23T15:24:09.511Z,52.70
2019-05-23T15:26:38.881Z,52.30
2019-05-23T15:29:08.213Z,54.70
2019-05-23T15:31:37.514Z,55.60
2019-05-23T15:34:06.819Z,55.40
2019-05-23T15:36:36.227Z,54.60
2019-05-23T15:39:10.152Z,53.00
2019-05-23T15:41:40.684Z,53.00
2019-05-23T15:44:23.871Z,51.60
2019-05-23T15:46:41.073Z,54.90
2019-05-23T15:49:11.749Z,57.50
2019-05-23T15:51:54.110Z,57.80
2019-05-23T15:54:24.609Z,58.70
2019-05-23T15:56:58.802Z,58.40
2019-05-23T15:59:32.189Z,59.90
2019-05-23T16:02:03.151Z,59.50
2019-05-23T16:04:32.454Z,59.40
2019-05-23T16:07:01.849Z,58.90
2019-05-23T16:09:31.320Z,59.70
2019-05-23T16:12:00.817Z,60.90
2019-05-23T16:14:31.257Z,61.80
2019-05-23T16:17:00.549Z,60.70
2019-05-23T16:19:30.867Z,59.40
2019-05-23T16:22:01.302Z,59.50
2019-05-23T16:24:31.045Z,61.60
2019-05-23T16:27:01.544Z,66.20
2019-05-23T16:29:30.941Z,62.40
2019-05-23T16:32:00.299Z,61.10
2019-05-23T16:34:30.130Z,62.70
2019-05-23T16:36:59.424Z,65.50
2019-05-23T16:39:44.170Z,64.90
2019-05-23T16:42:00.183Z,66.90
2019-05-23T16:44:29.486Z,66.50
2019-05-23T16:46:58.793Z,66.70
2019-05-23T16:49:28.105Z,70.30
2019-05-23T16:51:58.716Z,67.40
2019-05-23T16:54:30.845Z,68.00
2019-05-23T16:57:01.845Z,70.60
2019-05-23T16:59:32.842Z,70.90
2019-05-23T17:02:06.512Z,73.00
2019-05-23T17:04:48.493Z,70.80
2019-05-23T17:07:32.450Z,72.50
2019-05-23T17:10:09.910Z,74.10
2019-05-23T17:12:41.044Z,75.80
2019-05-23T17:15:28.100Z,76.50
2019-05-23T17:18:02.990Z,76.00
2019-05-23T17:20:42.124Z,76.10
2019-05-23T17:23:17.473Z,78.60
2019-05-23T17:25:54.422Z,79.90
2019-05-23T17:28:26.479Z,81.80
2019-05-23T17:31:00.564Z,82.20
2019-05-23T17:33:31.557Z,84.50
2019-05-23T17:36:01.214Z,87.40
2019-05-23T17:38:30.584Z,86.50
2019-05-23T17:41:00.260Z,87.00
2019-05-23T17:43:29.585Z,89.70
2019-05-23T17:45:58.982Z,88.40
2019-05-23T17:48:28.293Z,90.00
2019-05-23T17:50:57.609Z,90.80
2019-05-23T17:53:27.189Z,90.40
2019-05-23T17:55:57.162Z,90.60
2019-05-23T17:58:26.706Z,90.20
2019-05-23T18:00:56.213Z,90.90
2019-05-23T18:03:25.562Z,91.30
2019-05-23T18:05:55.333Z,90.80
2019-05-23T18:08:26.849Z,91.10
2019-05-23T18:10:56.193Z,92.20
2019-05-23T18:13:25.553Z,91.80
2019-05-23T18:15:55.401Z,90.70
2019-05-23T18:18:25.525Z,91.20
2019-05-23T18:20:55.274Z,91.40
2019-05-23T18:23:24.669Z,91.90
2019-05-23T18:25:54.002Z,91.50
2019-05-23T18:28:24.099Z,91.50
2019-05-23T18:30:58.381Z,91.60
2019-05-23T18:33:29.422Z,92.80
2019-05-23T18:35:59.204Z,93.00
2019-05-23T18:38:28.685Z,93.00
2019-05-23T18:41:03.091Z,94.00
2019-05-23T18:43:29.966Z,94.70
2019-05-23T18:46:00.938Z,94.30
2019-05-23T18:48:30.246Z,94.10
2019-05-23T18:50:59.832Z,95.00
2019-05-23T18:53:29.372Z,95.20
2019-05-23T18:55:58.748Z,94.90
2019-05-23T18:58:28.260Z,95.70
2019-05-23T19:01:09.277Z,96.70
2019-05-23T19:03:38.617Z,97.50
2019-05-23T19:06:07.953Z,96.40
2019-05-23T19:08:37.396Z,97.20
2019-05-23T19:11:20.295Z,97.70
2019-05-23T19:13:37.810Z,98.10
2019-05-23T19:16:07.337Z,98.70
2019-05-23T19:18:36.855Z,99.00
2019-05-23T19:21:10.461Z,99.30
2019-05-23T19:23:39.839Z,99.70
2019-05-23T19:26:09.973Z,99.90
2019-05-23T19:28:43.068Z,99.90
2019-05-23T19:31:13.025Z,99.90
2019-05-23T19:33:42.488Z,99.90
2019-05-23T19:36:11.873Z,99.90
2019-05-23T19:38:41.300Z,99.90
2019-05-23T19:41:12.547Z,99.90
2019-05-23T19:43:42.348Z,99.90
2019-05-23T19:46:13.143Z,99.90
2019-05-23T19:48:42.990Z,99.90
2019-05-23T19:51:12.580Z,99.90
2019-05-23T19:53:41.904Z,99.90
2019-05-23T19:56:11.521Z,99.90
2019-05-23T19:58:41.606Z,99.90
2019-05-23T20:01:11.886Z,99.90
2019-05-23T20:03:43.680Z,99.90
2019-05-23T20:06:13.936Z,99.90
2019-05-23T20:08:44.003Z,99.90
2019-05-23T20:11:13.389Z,99.90
2019-05-23T20:13:42.714Z,99.90
2019-05-23T20:16:12.077Z,99.90
2019-05-23T20:18:41.432Z,99.90
2019-05-23T20:21:11.597Z,99.90
2019-05-23T20:23:41.374Z,99.90
2019-05-23T20:26:12.211Z,99.90
2019-05-23T20:28:41.787Z,99.90
2019-05-23T20:31:11.343Z,99.90
2019-05-23T20:33:40.655Z,99.90
2019-05-23T20:36:12.448Z,99.90
2019-05-23T20:38:42.224Z,99.90
2019-05-23T20:41:11.610Z,99.90
2019-05-23T20:43:40.942Z,99.90
2019-05-23T20:46:10.329Z,99.90
2019-05-23T20:48:39.710Z,99.90
2019-05-23T20:51:09.267Z,99.90
2019-05-23T20:53:38.575Z,99.90
2019-05-23T20:56:09.197Z,99.90
2019-05-23T20:58:38.508Z,99.90
2019-05-23T21:01:16.377Z,99.90
2019-05-23T21:03:46.401Z,99.90
2019-05-23T21:06:15.901Z,99.90
2019-05-23T21:08:45.293Z,99.90
2019-05-23T21:11:14.600Z,99.90
2019-05-23T21:13:43.911Z,99.90
2019-05-23T21:16:13.692Z,99.90
2019-05-23T21:18:43.022Z,99.90
2019-05-23T21:21:12.401Z,99.90
2019-05-23T21:23:41.718Z,99.90
2019-05-23T21:26:11.919Z,99.90
2019-05-23T21:28:41.244Z,99.90
2019-05-23T21:31:13.610Z,99.90
2019-05-23T21:33:42.912Z,99.90
2019-05-23T21:36:12.241Z,99.90
2019-05-23T21:38:42.625Z,99.90
2019-05-23T21:41:11.947Z,99.90
2019-05-23T21:43:42.002Z,99.90
2019-05-23T21:46:11.310Z,99.90
2019-05-23T21:48:42.089Z,99.90
2019-05-23T21:51:11.497Z,99.90
2019-05-23T21:53:41.054Z,99.90
2019-05-23T21:56:10.377Z,99.90
2019-05-23T21:58:39.756Z,99.90
2019-05-23T22:01:11.053Z,99.90
2019-05-23T22:03:45.071Z,99.90
2019-05-23T22:06:16.942Z,99.90
2019-05-23T22:08:46.244Z,99.90
2019-05-23T22:11:15.637Z,99.90
2019-05-23T22:13:45.117Z,99.90
2019-05-23T22:16:14.758Z,99.90
2019-05-23T22:18:44.348Z,99.90
2019-05-23T22:21:13.897Z,99.90
2019-05-23T22:23:44.330Z,99.90
2019-05-23T22:26:14.446Z,99.90
2019-05-23T22:28:43.825Z,99.90
2019-05-23T22:31:13.133Z,99.90
2019-05-23T22:33:49.916Z,99.90
2019-05-23T22:36:20.394Z,99.90
2019-05-23T22:38:50.776Z,99.90
2019-05-23T22:41:20.702Z,99.90
2019-05-23T22:43:50.012Z,99.90
2019-05-23T22:46:21.054Z,99.90
2019-05-23T22:48:50.529Z,99.90
2019-05-23T22:51:19.839Z,99.90
2019-05-23T22:53:49.164Z,99.90
2019-05-23T22:56:18.466Z,99.90
2019-05-23T22:58:49.717Z,99.90
2019-05-23T23:01:20.706Z,99.90
2019-05-23T23:03:50.029Z,99.90
2019-05-23T23:06:19.707Z,99.90
2019-05-23T23:08:50.083Z,99.90
2019-05-23T23:11:19.462Z,99.90
2019-05-23T23:13:48.776Z,99.90
2019-05-23T23:16:18.114Z,99.90
2019-05-23T23:18:47.488Z,99.90
2019-05-23T23:21:17.760Z,99.90
2019-05-23T23:23:47.070Z,99.90
2019-05-23T23:26:16.925Z,99.90
2019-05-23T23:28:46.241Z,99.90
2019-05-23T23:31:15.546Z,99.90
2019-05-23T23:33:44.862Z,99.90
2019-05-23T23:36:14.174Z,99.90
2019-05-23T23:38:44.521Z,99.90
2019-05-23T23:41:13.908Z,99.90
2019-05-23T23:43:58.166Z,99.90
2019-05-23T23:46:32.944Z,99.90
2019-05-23T23:49:20.376Z,99.90
2019-05-23T23:52:07.552Z,99.90
2019-05-23T23:54:54.976Z,99.90
2019-05-23T23:57:43.070Z,99.90
